• Join FlightAware (Why Join?)
  • Login
  • US Flag 
01:02AM EDT


 

Airport Tracker/Info


-or-


 

Live Flight TrackerFlight Track Log ✈ CES2391 ✈ 23-Apr-2013 ✈ ZSWZ / WNZ - ZLXY / XIY

Flight Track Log - Related Links

Times and Time Zones

All times are in EDT time to prevent confusion due to time zone crossing. See the CES2391 flight status page for this flight to view local times or setup timezone preferences in your user account.

Time Position Orientation Groundspeed Altitude Reporting Facility
EDT Latitude Longitude Course Direction KTS MPH feet Rate Location/Type
07:30PM 28.3461 120.1527 305° West  Level Estimated
07:31PM 28.3941 120.0747 305° West  Level Estimated
07:32PM 28.4421 119.9966 305° West  Level Estimated
07:33PM 28.4900 119.9184 305° West  Level Estimated
07:34PM 28.5378 119.8402 305° West  Level Estimated
07:35PM 28.5856 119.7618 305° West  Level Estimated
07:36PM 28.6334 119.6834 305° West  Level Estimated
07:37PM 28.6811 119.6050 305° West  Level Estimated
07:38PM 28.7288 119.5264 305° West  Level Estimated
07:39PM 28.7764 119.4478 305° West  Level Estimated
07:40PM 28.8240 119.3691 305° West  Level Estimated
07:41PM 28.8716 119.2904 305° West  Level Estimated
07:42PM 28.9191 119.2116 305° West  Level Estimated
07:43PM 28.9665 119.1327 305° West  Level Estimated
07:44PM 29.0139 119.0537 304° West  Level Estimated
07:45PM 29.0613 118.9747 304° West  Level Estimated
07:46PM 29.1086 118.8956 304° West  Level Estimated
07:47PM 29.1558 118.8164 304° West  Level Estimated
07:48PM 29.2031 118.7371 304° West  Level Estimated
07:49PM 29.2502 118.6578 304° West  Level Estimated
07:50PM 29.2973 118.5784 304° West  Level Estimated
07:51PM 29.3444 118.4989 304° West  Level Estimated
07:52PM 29.3915 118.4193 304° West  Level Estimated
07:53PM 29.4384 118.3397 304° West  Level Estimated
07:54PM 29.4854 118.2600 304° West  Level Estimated
07:55PM 29.5322 118.1802 304° West  Level Estimated
07:56PM 29.5791 118.1004 304° West  Level Estimated
07:57PM 29.6259 118.0205 304° West  Level Estimated
07:58PM 29.6726 117.9405 304° West  Level Estimated
07:59PM 29.7193 117.8604 304° West  Level Estimated
08:00PM 29.7660 117.7802 304° West  Level Estimated
08:01PM 29.8126 117.7000 304° West  Level Estimated
08:02PM 29.8591 117.6197 304° West  Level Estimated
08:03PM 29.9056 117.5394 304° West  Level Estimated
08:04PM 29.9521 117.4589 304° West  Level Estimated
08:05PM 29.9985 117.3784 304° West  Level Estimated
08:06PM 30.0448 117.2978 304° West  Level Estimated
08:07PM 30.0911 117.2171 304° West  Level Estimated
08:08PM 30.1374 117.1364 304° West  Level Estimated
08:09PM 30.1836 117.0556 303° West  Level Estimated
08:10PM 30.2297 116.9747 303° West  Level Estimated
08:11PM 30.2759 116.8937 303° West  Level Estimated
08:12PM 30.3219 116.8126 303° West  Level Estimated
08:13PM 30.3679 116.7315 303° West  Level Estimated
08:14PM 30.4139 116.6503 303° West  Level Estimated
08:15PM 30.4598 116.5690 303° West  Level Estimated
08:16PM 30.5057 116.4877 303° West  Level Estimated
08:17PM 30.5515 116.4062 303° West  Level Estimated
08:18PM 30.5972 116.3247 303° West  Level Estimated
08:19PM 30.6429 116.2431 303° West  Level Estimated
08:20PM 30.6886 116.1615 303° West  Level Estimated
08:21PM 30.7342 116.0797 303° West  Level Estimated
08:22PM 30.7797 115.9979 303° West  Level Estimated
08:23PM 30.8252 115.9160 303° West  Level Estimated
08:24PM 30.8707 115.8341 303° West  Level Estimated
08:25PM 30.9161 115.7520 303° West  Level Estimated
08:26PM 30.9614 115.6699 303° West  Level Estimated
08:27PM 31.0067 115.5877 303° West  Level Estimated
08:28PM 31.0519 115.5054 303° West  Level Estimated
08:29PM 31.0971 115.4230 303° West  Level Estimated
08:30PM 31.1423 115.3406 303° West  Level Estimated
08:31PM 31.1873 115.2581 303° West  Level Estimated
08:32PM 31.2324 115.1755 303° West  Level Estimated
08:33PM 31.2774 115.0928 302° West  Level Estimated
08:34PM 31.3223 115.0100 302° West  Level Estimated
08:35PM 31.3671 114.9272 302° West  Level Estimated
08:36PM 31.4120 114.8443 302° West  Level Estimated
08:37PM 31.4567 114.7613 302° West  Level Estimated
08:38PM 31.5014 114.6782 302° West  Level Estimated
08:39PM 31.5461 114.5951 302° West  Level Estimated
08:40PM 31.5907 114.5118 302° West  Level Estimated
08:41PM 31.6353 114.4285 302° West  Level Estimated
08:42PM 31.6798 114.3451 302° West  Level Estimated
08:43PM 31.7242 114.2617 302° West  Level Estimated
08:44PM 31.7686 114.1781 302° West  Level Estimated
08:45PM 31.8129 114.0945 302° West  Level Estimated
08:46PM 31.8572 114.0108 302° West  Level Estimated
08:47PM 31.9014 113.9270 302° West  Level Estimated
08:48PM 31.9456 113.8431 302° West  Level Estimated
08:49PM 31.9897 113.7592 302° West  Level Estimated
08:50PM 32.0337 113.6751 302° West  Level Estimated
08:51PM 32.0778 113.5910 302° West  Level Estimated
08:52PM 32.1217 113.5068 302° West  Level Estimated
08:53PM 32.1656 113.4225 302° West  Level Estimated
08:54PM 32.2094 113.3382 302° West  Level Estimated
08:55PM 32.2532 113.2538 302° West  Level Estimated
08:56PM 32.2969 113.1692 301° West  Level Estimated
08:57PM 32.3406 113.0846 301° West  Level Estimated
08:58PM 32.3842 112.9999 301° West  Level Estimated
08:59PM 32.4277 112.9152 301° West  Level Estimated
09:00PM 32.4712 112.8303 301° West  Level Estimated
09:01PM 32.5147 112.7454 301° West  Level Estimated
09:02PM 32.5581 112.6604 301° West  Level Estimated
09:03PM 32.6014 112.5753 301° West  Level Estimated
09:04PM 32.6447 112.4901 301° West  Level Estimated
09:05PM 32.6879 112.4049 301° West  Level Estimated
09:06PM 32.7310 112.3195 301° West  Level Estimated
09:07PM 32.7741 112.2341 301° West  Level Estimated
09:08PM 32.8172 112.1486 301° West  Level Estimated
09:09PM 32.8601 112.0630 301° West  Level Estimated
09:10PM 32.9030 111.9773 301° West  Level Estimated
09:11PM 32.9459 111.8916 301° West  Level Estimated
09:12PM 32.9887 111.8057 301° West  Level Estimated
09:13PM 33.0314 111.7198 301° West  Level Estimated
09:14PM 33.0741 111.6338 301° West  Level Estimated
09:15PM 33.1167 111.5477 301° West  Level Estimated
09:16PM 33.1593 111.4616 301° West  Level Estimated
09:17PM 33.2018 111.3753 301° West  Level Estimated
09:18PM 33.2443 111.2890 300° West  Level Estimated
09:19PM 33.2867 111.2026 300° West  Level Estimated
09:20PM 33.3290 111.1160 300° West  Level Estimated
09:21PM 33.3713 111.0294 300° West  Level Estimated
09:22PM 33.4135 110.9428 300° West  Level Estimated
09:23PM 33.4556 110.8560 300° West  Level Estimated
09:24PM 33.4977 110.7692 300° West  Level Estimated
09:25PM 33.5397 110.6823 300° West  Level Estimated
09:26PM 33.5817 110.5952 300° West  Level Estimated
09:27PM 33.6236 110.5081 300° West  Level Estimated
09:28PM 33.6654 110.4210 300° West  Level Estimated
09:29PM 33.7072 110.3337 300° West  Level Estimated
09:30PM 33.7489 110.2463 300° West  Level Estimated
09:31PM 33.7906 110.1589 300° West  Level Estimated
09:32PM 33.8322 110.0714 300° West  Level Estimated
09:33PM 33.8737 109.9838 300° West  Level Estimated
09:34PM 33.9152 109.8961 300° West  Level Estimated
09:35PM 33.9600 109.8011 300° West  Level Estimated
09:36PM 34.0047 109.7061 300° West  Level Estimated
09:37PM 34.0493 109.6110 300° West  Level Estimated
09:38PM 34.0939 109.5158 299° West  Level Estimated
09:39PM 34.1384 109.4204 299° West  Level Estimated
09:40PM 34.1828 109.3250 299° West  Level Estimated
09:41PM 34.2271 109.2295 299° West  Level Estimated
09:42PM 34.2714 109.1338 299° West  Level Estimated
09:43PM 34.3156 109.0381 299° West  Level Estimated
09:44PM 34.3597 108.9423 299° West  Level Estimated
09:45PM 34.4038 108.8463 299° West  Level Estimated
09:46PM 34.4471 108.7516 299° West  Level Estimated
09:47PM 34.4471 108.7516 121° Southeast  Level Estimated
09:48PM 34.4471 108.7516 121° Southeast  Level Estimated
09:49PM 34.4471 108.7516 121° Southeast  Level Estimated
09:50PM 34.4471 108.7516 121° Southeast  Level Estimated
09:51PM 34.4471 108.7516 121° Southeast  Level Estimated
09:52PM 34.4471 108.7516 121° Southeast  Level Estimated